sensor_id;sensor_type;location;lat;lon;timestamp;pressure;altitude;pressure_sealevel;temperature;humidity
69879;BME280;57161;43.136;24.706;2022-09-23T00:01:52;99426.16;;;12.55;59.58
69879;BME280;57161;43.136;24.706;2022-09-23T00:04:19;99417.53;;;12.53;61.03
69879;BME280;57161;43.136;24.706;2022-09-23T00:06:44;99409.81;;;12.39;59.82
69879;BME280;57161;43.136;24.706;2022-09-23T00:09:10;99423.75;;;12.31;61.88
69879;BME280;57161;43.136;24.706;2022-09-23T00:11:36;99420.50;;;12.19;62.10
69879;BME280;57161;43.136;24.706;2022-09-23T00:14:03;99414.09;;;12.11;62.67
69879;BME280;57161;43.136;24.706;2022-09-23T00:16:31;99403.34;;;11.94;63.02
69879;BME280;57161;43.136;24.706;2022-09-23T00:18:59;99367.22;;;11.62;62.78
69879;BME280;57161;43.136;24.706;2022-09-23T00:21:25;99383.81;;;11.60;63.64
69879;BME280;57161;43.136;24.706;2022-09-23T00:23:51;99393.31;;;11.57;63.94
69879;BME280;57161;43.136;24.706;2022-09-23T00:26:19;99403.47;;;11.68;64.23
69879;BME280;57161;43.136;24.706;2022-09-23T00:28:46;99408.88;;;11.66;64.42
69879;BME280;57161;43.136;24.706;2022-09-23T00:31:17;99413.16;;;11.67;64.42
69879;BME280;57161;43.136;24.706;2022-09-23T00:33:43;99390.78;;;11.46;64.55
69879;BME280;57161;43.136;24.706;2022-09-23T00:36:11;99397.59;;;11.37;64.92
69879;BME280;57161;43.136;24.706;2022-09-23T00:38:37;99382.19;;;11.23;65.21
69879;BME280;57161;43.136;24.706;2022-09-23T00:41:03;99376.22;;;11.06;65.66
69879;BME280;57161;43.136;24.706;2022-09-23T00:46:19;99393.88;;;11.22;66.00
69879;BME280;57161;43.136;24.706;2022-09-23T00:48:47;99372.25;;;11.01;65.98
69879;BME280;57161;43.136;24.706;2022-09-23T00:51:17;99398.97;;;11.23;65.74
69879;BME280;57161;43.136;24.706;2022-09-23T00:53:47;99390.13;;;11.19;65.76
69879;BME280;57161;43.136;24.706;2022-09-23T00:56:14;99372.00;;;11.12;65.93
69879;BME280;57161;43.136;24.706;2022-09-23T00:58:42;99391.22;;;11.16;66.26
69879;BME280;57161;43.136;24.706;2022-09-23T01:01:08;99398.25;;;11.09;66.64
69879;BME280;57161;43.136;24.706;2022-09-23T01:03:35;99369.09;;;10.84;66.55
69879;BME280;57161;43.136;24.706;2022-09-23T01:06:00;99391.31;;;10.90;67.04
69879;BME280;57161;43.136;24.706;2022-09-23T01:08:26;99384.28;;;10.75;67.25
69879;BME280;57161;43.136;24.706;2022-09-23T01:20:12;99398.88;;;10.68;67.96
69879;BME280;57161;43.136;24.706;2022-09-23T01:22:53;99395.56;;;10.57;68.37
69879;BME280;57161;43.136;24.706;2022-09-23T01:26:05;99404.50;;;10.55;68.44
69879;BME280;57161;43.136;24.706;2022-09-23T01:34:34;99410.75;;;10.48;68.67
69879;BME280;57161;43.136;24.706;2022-09-23T01:37:11;99410.00;;;10.34;68.98
69879;BME280;57161;43.136;24.706;2022-09-23T01:42:34;99407.94;;;10.35;69.04
69879;BME280;57161;43.136;24.706;2022-09-23T01:47:52;99400.88;;;10.34;69.07
69879;BME280;57161;43.136;24.706;2022-09-23T01:50:41;99390.44;;;10.21;69.18
69879;BME280;57161;43.136;24.706;2022-09-23T01:55:57;99400.78;;;10.26;69.13
69879;BME280;57161;43.136;24.706;2022-09-23T02:01:01;99382.78;;;10.08;69.20
69879;BME280;57161;43.136;24.706;2022-09-23T02:03:52;99405.66;;;10.20;69.39
69879;BME280;57161;43.136;24.706;2022-09-23T02:06:20;99403.53;;;10.13;69.46
69879;BME280;57161;43.136;24.706;2022-09-23T02:08:59;99408.91;;;10.11;69.51
69879;BME280;57161;43.136;24.706;2022-09-23T02:11:26;99413.06;;;10.04;69.70
69879;BME280;57161;43.136;24.706;2022-09-23T02:14:02;99399.97;;;9.99;69.64
69879;BME280;57161;43.136;24.706;2022-09-23T02:16:37;99397.94;;;10.00;69.42
69879;BME280;57161;43.136;24.706;2022-09-23T02:19:13;99421.13;;;10.08;69.55
69879;BME280;57161;43.136;24.706;2022-09-23T02:21:45;99415.84;;;10.04;69.41
69879;BME280;57161;43.136;24.706;2022-09-23T02:24:18;99409.44;;;10.09;69.05
69879;BME280;57161;43.136;24.706;2022-09-23T02:26:54;99412.72;;;10.08;69.02
69879;BME280;57161;43.136;24.706;2022-09-23T02:29:46;99408.56;;;10.14;69.00
69879;BME280;57161;43.136;24.706;2022-09-23T02:43:24;99417.88;;;10.04;68.97
69879;BME280;57161;43.136;24.706;2022-09-23T02:45:52;99408.44;;;10.07;68.99
69879;BME280;57161;43.136;24.706;2022-09-23T02:48:33;99415.09;;;10.04;68.88
69879;BME280;57161;43.136;24.706;2022-09-23T02:50:59;99422.84;;;10.11;68.75
69879;BME280;57161;43.136;24.706;2022-09-23T02:53:29;99419.94;;;10.03;68.82
69879;BME280;57161;43.136;24.706;2022-09-23T02:55:57;99430.22;;;10.08;68.87
69879;BME280;57161;43.136;24.706;2022-09-23T02:58:23;99429.47;;;10.08;68.62
69879;BME280;57161;43.136;24.706;2022-09-23T03:03:43;99432.59;;;10.04;68.81
69879;BME280;57161;43.136;24.706;2022-09-23T03:06:27;99427.75;;;9.91;68.89
69879;BME280;57161;43.136;24.706;2022-09-23T03:09:05;99427.97;;;9.93;69.05
69879;BME280;57161;43.136;24.706;2022-09-23T03:11:35;99431.75;;;9.96;69.02
69879;BME280;57161;43.136;24.706;2022-09-23T03:17:02;99424.16;;;9.65;70.00
69879;BME280;57161;43.136;24.706;2022-09-23T03:19:42;99430.75;;;9.48;70.81
69879;BME280;57161;43.136;24.706;2022-09-23T03:22:11;99441.63;;;9.33;71.49
69879;BME280;57161;43.136;24.706;2022-09-23T03:24:41;99442.53;;;9.22;71.67
69879;BME280;57161;43.136;24.706;2022-09-23T03:27:15;99444.56;;;9.22;71.86
69879;BME280;57161;43.136;24.706;2022-09-23T03:29:44;99437.28;;;9.19;71.82
69879;BME280;57161;43.136;24.706;2022-09-23T03:32:13;99430.03;;;9.10;71.89
69879;BME280;57161;43.136;24.706;2022-09-23T03:34:42;99421.31;;;9.00;71.99
69879;BME280;57161;43.136;24.706;2022-09-23T03:37:31;99442.84;;;9.19;71.74
69879;BME280;57161;43.136;24.706;2022-09-23T03:40:28;99441.25;;;9.23;71.28
69879;BME280;57161;43.136;24.706;2022-09-23T03:42:57;99437.56;;;9.34;70.90
69879;BME280;57161;43.136;24.706;2022-09-23T03:45:30;99444.47;;;9.46;70.70
69879;BME280;57161;43.136;24.706;2022-09-23T03:47:57;99451.16;;;9.56;70.37
69879;BME280;57161;43.136;24.706;2022-09-23T03:50:22;99452.13;;;9.59;70.18
69879;BME280;57161;43.136;24.706;2022-09-23T03:52:48;99456.34;;;9.66;70.13
69879;BME280;57161;43.136;24.706;2022-09-23T03:55:15;99455.28;;;9.69;69.50
69879;BME280;57161;43.136;24.706;2022-09-23T03:57:41;99451.56;;;9.79;69.32
69879;BME280;57161;43.136;24.706;2022-09-23T04:00:08;99462.72;;;9.79;69.19
69879;BME280;57161;43.136;24.706;2022-09-23T04:02:34;99443.59;;;9.70;69.18
69879;BME280;57161;43.136;24.706;2022-09-23T04:04:59;99458.53;;;9.86;68.95
69879;BME280;57161;43.136;24.706;2022-09-23T04:07:25;99445.44;;;9.81;69.10
69879;BME280;57161;43.136;24.706;2022-09-23T04:09:51;99466.69;;;9.84;69.23
69879;BME280;57161;43.136;24.706;2022-09-23T04:12:17;99465.59;;;9.74;69.54
69879;BME280;57161;43.136;24.706;2022-09-23T04:14:42;99458.03;;;9.55;69.79
69879;BME280;57161;43.136;24.706;2022-09-23T04:17:08;99463.47;;;9.48;70.18
69879;BME280;57161;43.136;24.706;2022-09-23T04:19:34;99417.53;;;9.17;70.41
69879;BME280;57161;43.136;24.706;2022-09-23T04:22:00;99455.03;;;9.35;70.37
69879;BME280;57161;43.136;24.706;2022-09-23T04:24:25;99448.13;;;9.22;70.38
69879;BME280;57161;43.136;24.706;2022-09-23T04:26:54;99467.16;;;9.37;70.41
69879;BME280;57161;43.136;24.706;2022-09-23T04:29:22;99460.63;;;9.35;70.42
69879;BME280;57161;43.136;24.706;2022-09-23T04:31:48;99447.91;;;9.20;70.75
69879;BME280;57161;43.136;24.706;2022-09-23T04:34:13;99464.84;;;9.22;71.23
69879;BME280;57161;43.136;24.706;2022-09-23T04:36:41;99461.91;;;9.15;71.45
69879;BME280;57161;43.136;24.706;2022-09-23T04:39:07;99463.47;;;9.10;71.60
69879;BME280;57161;43.136;24.706;2022-09-23T04:41:32;99466.34;;;9.23;71.46
69879;BME280;57161;43.136;24.706;2022-09-23T04:43:58;99456.13;;;9.13;71.46
69879;BME280;57161;43.136;24.706;2022-09-23T04:46:23;99470.59;;;9.30;71.51
69879;BME280;57161;43.136;24.706;2022-09-23T04:48:49;99446.16;;;9.17;71.33
69879;BME280;57161;43.136;24.706;2022-09-23T04:51:18;99476.25;;;9.56;70.52
69879;BME280;57161;43.136;24.706;2022-09-23T04:53:46;99464.66;;;9.52;70.24
69879;BME280;57161;43.136;24.706;2022-09-23T04:56:17;99461.50;;;9.61;70.04
69879;BME280;57161;43.136;24.706;2022-09-23T04:58:43;99467.06;;;9.93;69.41
69879;BME280;57161;43.136;24.706;2022-09-23T05:01:15;99421.16;;;9.76;68.76
69879;BME280;57161;43.136;24.706;2022-09-23T05:03:41;99469.13;;;10.19;68.47
69879;BME280;57161;43.136;24.706;2022-09-23T05:06:07;99465.06;;;10.20;68.32
69879;BME280;57161;43.136;24.706;2022-09-23T05:08:34;99475.31;;;10.44;68.16
69879;BME280;57161;43.136;24.706;2022-09-23T05:11:01;99473.16;;;10.50;67.92
69879;BME280;57161;43.136;24.706;2022-09-23T05:13:29;99487.47;;;10.60;67.71
69879;BME280;57161;43.136;24.706;2022-09-23T05:16:03;99462.53;;;10.49;68.03
69879;BME280;57161;43.136;24.706;2022-09-23T05:18:32;99478.00;;;10.63;67.19
69879;BME280;57161;43.136;24.706;2022-09-23T05:20:58;99466.72;;;10.69;67.05
69879;BME280;57161;43.136;24.706;2022-09-23T05:23:24;99455.44;;;10.74;66.50
69879;BME280;57161;43.136;24.706;2022-09-23T05:26:01;99473.31;;;11.05;66.08
69879;BME280;57161;43.136;24.706;2022-09-23T05:28:28;99475.81;;;11.09;66.11
69879;BME280;57161;43.136;24.706;2022-09-23T05:31:06;99468.16;;;11.09;65.94
69879;BME280;57161;43.136;24.706;2022-09-23T05:33:33;99490.28;;;11.21;65.47
69879;BME280;57161;43.136;24.706;2022-09-23T05:35:59;99461.94;;;11.03;65.66
69879;BME280;57161;43.136;24.706;2022-09-23T05:38:27;99488.97;;;11.22;67.00
69879;BME280;57161;43.136;24.706;2022-09-23T05:40:57;99489.56;;;11.07;66.40
69879;BME280;57161;43.136;24.706;2022-09-23T05:43:24;99465.75;;;10.79;66.54
69879;BME280;57161;43.136;24.706;2022-09-23T05:45:50;99471.75;;;10.83;66.83
69879;BME280;57161;43.136;24.706;2022-09-23T05:48:16;99465.31;;;10.62;67.20
69879;BME280;57161;43.136;24.706;2022-09-23T05:50:51;99484.63;;;10.87;67.18
69879;BME280;57161;43.136;24.706;2022-09-23T05:53:20;99453.91;;;10.73;66.78
69879;BME280;57161;43.136;24.706;2022-09-23T05:55:45;99461.03;;;10.74;66.86
69879;BME280;57161;43.136;24.706;2022-09-23T05:58:11;99438.47;;;10.59;66.25
69879;BME280;57161;43.136;24.706;2022-09-23T06:00:41;99496.13;;;11.09;66.12
69879;BME280;57161;43.136;24.706;2022-09-23T06:03:12;99476.22;;;11.13;65.57
69879;BME280;57161;43.136;24.706;2022-09-23T06:05:38;99433.00;;;11.01;65.28
69879;BME280;57161;43.136;24.706;2022-09-23T06:08:04;99454.78;;;11.29;64.66
69879;BME280;57161;43.136;24.706;2022-09-23T06:10:30;99497.47;;;11.63;64.85
69879;BME280;57161;43.136;24.706;2022-09-23T06:12:55;99505.19;;;11.70;64.40
69879;BME280;57161;43.136;24.706;2022-09-23T06:15:21;99492.00;;;11.58;65.08
69879;BME280;57161;43.136;24.706;2022-09-23T06:17:49;99518.59;;;11.85;64.70
69879;BME280;57161;43.136;24.706;2022-09-23T06:20:15;99504.50;;;11.91;63.87
69879;BME280;57161;43.136;24.706;2022-09-23T06:22:40;99518.84;;;12.08;63.64
69879;BME280;57161;43.136;24.706;2022-09-23T06:25:06;99512.41;;;12.21;62.10
69879;BME280;57161;43.136;24.706;2022-09-23T06:27:31;99530.28;;;12.39;61.14
69879;BME280;57161;43.136;24.706;2022-09-23T06:29:57;99527.81;;;12.56;60.05
69879;BME280;57161;43.136;24.706;2022-09-23T06:32:24;99495.50;;;12.34;59.59
69879;BME280;57161;43.136;24.706;2022-09-23T06:34:50;99513.91;;;12.50;59.09
69879;BME280;57161;43.136;24.706;2022-09-23T06:37:16;99544.00;;;12.78;59.26
69879;BME280;57161;43.136;24.706;2022-09-23T06:39:41;99538.59;;;12.80;59.08
69879;BME280;57161;43.136;24.706;2022-09-23T06:42:07;99529.78;;;12.76;58.68
69879;BME280;57161;43.136;24.706;2022-09-23T06:44:33;99515.19;;;12.70;58.54
69879;BME280;57161;43.136;24.706;2022-09-23T06:46:59;99540.84;;;12.82;58.79
69879;BME280;57161;43.136;24.706;2022-09-23T06:49:24;99517.25;;;12.70;58.54
69879;BME280;57161;43.136;24.706;2022-09-23T06:51:50;99517.44;;;12.72;58.80
69879;BME280;57161;43.136;24.706;2022-09-23T06:54:16;99521.88;;;12.67;58.33
69879;BME280;57161;43.136;24.706;2022-09-23T06:56:42;99543.66;;;12.82;58.66
69879;BME280;57161;43.136;24.706;2022-09-23T06:59:11;99533.44;;;12.63;58.91
69879;BME280;57161;43.136;24.706;2022-09-23T07:01:41;99537.91;;;12.87;58.59
69879;BME280;57161;43.136;24.706;2022-09-23T07:04:08;99541.56;;;12.75;58.84
69879;BME280;57161;43.136;24.706;2022-09-23T07:06:34;99551.88;;;12.80;58.92
69879;BME280;57161;43.136;24.706;2022-09-23T07:09:00;99554.66;;;12.80;59.36
69879;BME280;57161;43.136;24.706;2022-09-23T07:11:25;99517.19;;;12.62;59.64
69879;BME280;57161;43.136;24.706;2022-09-23T07:13:51;99554.38;;;12.62;60.03
69879;BME280;57161;43.136;24.706;2022-09-23T07:16:17;99554.00;;;12.66;60.60
69879;BME280;57161;43.136;24.706;2022-09-23T07:18:42;99535.66;;;12.57;60.89
69879;BME280;57161;43.136;24.706;2022-09-23T07:21:14;99553.69;;;12.70;60.96
69879;BME280;57161;43.136;24.706;2022-09-23T07:23:44;99542.59;;;12.64;60.92
69879;BME280;57161;43.136;24.706;2022-09-23T07:26:11;99503.84;;;12.26;60.92
69879;BME280;57161;43.136;24.706;2022-09-23T07:28:37;99566.78;;;12.75;60.42
69879;BME280;57161;43.136;24.706;2022-09-23T07:31:07;99541.91;;;12.71;60.41
69879;BME280;57161;43.136;24.706;2022-09-23T07:33:37;99528.38;;;12.62;60.53
69879;BME280;57161;43.136;24.706;2022-09-23T07:36:09;99537.28;;;12.81;60.11
69879;BME280;57161;43.136;24.706;2022-09-23T07:38:36;99561.56;;;13.07;59.98
69879;BME280;57161;43.136;24.706;2022-09-23T07:41:07;99545.50;;;13.08;59.57
69879;BME280;57161;43.136;24.706;2022-09-23T07:43:34;99552.88;;;13.18;59.86
69879;BME280;57161;43.136;24.706;2022-09-23T07:46:00;99562.50;;;13.38;59.56
69879;BME280;57161;43.136;24.706;2022-09-23T07:48:28;99555.25;;;13.58;58.78
69879;BME280;57161;43.136;24.706;2022-09-23T07:50:55;99553.94;;;13.51;58.57
69879;BME280;57161;43.136;24.706;2022-09-23T07:53:21;99555.25;;;13.58;58.97
69879;BME280;57161;43.136;24.706;2022-09-23T07:55:51;99545.72;;;13.54;59.21
69879;BME280;57161;43.136;24.706;2022-09-23T07:58:17;99554.38;;;13.71;59.59
69879;BME280;57161;43.136;24.706;2022-09-23T08:00:42;99537.66;;;13.58;59.55
69879;BME280;57161;43.136;24.706;2022-09-23T08:03:08;99561.44;;;13.64;60.08
69879;BME280;57161;43.136;24.706;2022-09-23T08:05:34;99562.94;;;13.58;60.04
69879;BME280;57161;43.136;24.706;2022-09-23T08:08:00;99549.28;;;13.54;59.84
69879;BME280;57161;43.136;24.706;2022-09-23T08:10:26;99552.81;;;13.55;59.87
69879;BME280;57161;43.136;24.706;2022-09-23T08:12:52;99541.69;;;13.85;59.26
69879;BME280;57161;43.136;24.706;2022-09-23T08:15:17;99559.53;;;14.33;57.95
69879;BME280;57161;43.136;24.706;2022-09-23T08:17:43;99543.22;;;14.39;57.40
69879;BME280;57161;43.136;24.706;2022-09-23T08:20:09;99566.47;;;14.63;56.96
69879;BME280;57161;43.136;24.706;2022-09-23T08:22:55;99534.25;;;14.56;56.40
69879;BME280;57161;43.136;24.706;2022-09-23T08:25:20;99563.84;;;14.73;55.85
69879;BME280;57161;43.136;24.706;2022-09-23T08:27:46;99578.06;;;14.90;55.76
69879;BME280;57161;43.136;24.706;2022-09-23T08:30:12;99540.78;;;14.74;55.00
69879;BME280;57161;43.136;24.706;2022-09-23T08:32:37;99514.56;;;14.49;55.47
69879;BME280;57161;43.136;24.706;2022-09-23T08:35:03;99558.91;;;15.04;54.79
69879;BME280;57161;43.136;24.706;2022-09-23T08:37:28;99570.69;;;15.17;54.00
69879;BME280;57161;43.136;24.706;2022-09-23T08:39:54;99551.34;;;15.21;54.23
69879;BME280;57161;43.136;24.706;2022-09-23T08:42:27;99567.84;;;15.73;53.09
69879;BME280;57161;43.136;24.706;2022-09-23T08:44:59;99559.94;;;15.79;52.90
69879;BME280;57161;43.136;24.706;2022-09-23T08:50:19;99569.81;;;15.95;51.40
69879;BME280;57161;43.136;24.706;2022-09-23T08:52:57;99562.84;;;15.56;52.19
69879;BME280;57161;43.136;24.706;2022-09-23T08:55:44;99560.06;;;15.48;52.57
69879;BME280;57161;43.136;24.706;2022-09-23T09:03:37;99545.31;;;15.73;52.50
69879;BME280;57161;43.136;24.706;2022-09-23T09:06:04;99559.06;;;16.01;51.47
69879;BME280;57161;43.136;24.706;2022-09-23T09:08:33;99562.81;;;16.29;50.36
69879;BME280;57161;43.136;24.706;2022-09-23T09:11:00;99556.19;;;16.09;50.48
69879;BME280;57161;43.136;24.706;2022-09-23T09:13:36;99547.13;;;16.10;50.74
69879;BME280;57161;43.136;24.706;2022-09-23T09:19:18;99533.28;;;15.80;50.17
69879;BME280;57161;43.136;24.706;2022-09-23T09:21:46;99547.63;;;15.99;50.67
69879;BME280;57161;43.136;24.706;2022-09-23T09:24:17;99545.38;;;16.23;50.62
69879;BME280;57161;43.136;24.706;2022-09-23T09:26:46;99539.91;;;16.25;50.82
69879;BME280;57161;43.136;24.706;2022-09-23T09:29:36;99554.50;;;16.56;50.70
69879;BME280;57161;43.136;24.706;2022-09-23T09:32:23;99551.72;;;16.73;49.97
69879;BME280;57161;43.136;24.706;2022-09-23T09:34:58;99542.78;;;16.84;50.12
69879;BME280;57161;43.136;24.706;2022-09-23T09:37:29;99541.88;;;16.99;49.38
69879;BME280;57161;43.136;24.706;2022-09-23T09:39:57;99545.84;;;17.30;49.86
69879;BME280;57161;43.136;24.706;2022-09-23T09:42:26;99548.28;;;17.78;49.03
69879;BME280;57161;43.136;24.706;2022-09-23T09:45:00;99551.47;;;17.92;47.48
69879;BME280;57161;43.136;24.706;2022-09-23T09:50:44;99550.78;;;17.13;47.65
69879;BME280;57161;43.136;24.706;2022-09-23T09:56:08;99560.94;;;16.73;49.96
69879;BME280;57161;43.136;24.706;2022-09-23T10:01:30;99543.63;;;16.77;48.68
69879;BME280;57161;43.136;24.706;2022-09-23T10:03:58;99558.88;;;16.74;49.37
69879;BME280;57161;43.136;24.706;2022-09-23T10:06:30;99560.03;;;16.71;49.34
69879;BME280;57161;43.136;24.706;2022-09-23T10:09:13;99569.03;;;16.77;49.06
69879;BME280;57161;43.136;24.706;2022-09-23T10:11:40;99541.03;;;16.71;49.45
69879;BME280;57161;43.136;24.706;2022-09-23T10:14:15;99530.06;;;16.75;48.60
69879;BME280;57161;43.136;24.706;2022-09-23T10:16:44;99549.50;;;17.23;49.08
69879;BME280;57161;43.136;24.706;2022-09-23T10:19:25;99549.50;;;17.23;47.45
69879;BME280;57161;43.136;24.706;2022-09-23T10:21:53;99503.28;;;17.01;48.10
69879;BME280;57161;43.136;24.706;2022-09-23T10:24:24;99529.69;;;17.58;47.61
69879;BME280;57161;43.136;24.706;2022-09-23T10:27:02;99529.91;;;17.96;45.77
69879;BME280;57161;43.136;24.706;2022-09-23T10:32:33;99534.22;;;18.34;45.66
69879;BME280;57161;43.136;24.706;2022-09-23T10:43:26;99524.69;;;18.29;45.42
69879;BME280;57161;43.136;24.706;2022-09-23T10:52:39;99498.47;;;18.95;43.41
69879;BME280;57161;43.136;24.706;2022-09-23T10:55:35;99490.88;;;18.87;43.26
69879;BME280;57161;43.136;24.706;2022-09-23T10:58:12;99493.56;;;19.05;43.74
69879;BME280;57161;43.136;24.706;2022-09-23T11:00:50;99470.28;;;18.68;43.58
69879;BME280;57161;43.136;24.706;2022-09-23T11:06:28;99487.94;;;18.29;44.79
69879;BME280;57161;43.136;24.706;2022-09-23T11:17:00;99489.91;;;18.46;42.37
69879;BME280;57161;43.136;24.706;2022-09-23T11:27:52;99468.78;;;19.25;41.68
69879;BME280;57161;43.136;24.706;2022-09-23T11:30:21;99460.69;;;19.40;40.55
69879;BME280;57161;43.136;24.706;2022-09-23T11:37:50;99422.16;;;18.87;41.43
69879;BME280;57161;43.136;24.706;2022-09-23T11:40:24;99443.75;;;19.11;41.09
69879;BME280;57161;43.136;24.706;2022-09-23T11:43:02;99448.19;;;19.34;41.35
69879;BME280;57161;43.136;24.706;2022-09-23T11:45:35;99417.75;;;19.44;40.71
69879;BME280;57161;43.136;24.706;2022-09-23T11:48:56;99428.31;;;19.53;38.99
69879;BME280;57161;43.136;24.706;2022-09-23T11:54:01;99424.19;;;18.19;42.76
69879;BME280;57161;43.136;24.706;2022-09-23T11:56:32;99430.88;;;18.14;42.73
69879;BME280;57161;43.136;24.706;2022-09-23T11:59:14;99428.09;;;18.23;43.11
69879;BME280;57161;43.136;24.706;2022-09-23T12:01:48;99410.41;;;17.86;43.36
69879;BME280;57161;43.136;24.706;2022-09-23T12:04:39;99436.97;;;18.10;44.39
69879;BME280;57161;43.136;24.706;2022-09-23T12:09:58;99419.00;;;18.25;43.38
69879;BME280;57161;43.136;24.706;2022-09-23T12:23:42;99416.50;;;19.06;41.52
69879;BME280;57161;43.136;24.706;2022-09-23T12:26:22;99418.09;;;19.29;41.40
69879;BME280;57161;43.136;24.706;2022-09-23T12:28:51;99409.78;;;19.11;39.80
69879;BME280;57161;43.136;24.706;2022-09-23T12:31:21;99411.88;;;19.11;39.55
69879;BME280;57161;43.136;24.706;2022-09-23T12:33:59;99412.41;;;19.29;39.69
69879;BME280;57161;43.136;24.706;2022-09-23T12:36:32;99416.25;;;19.43;40.06
69879;BME280;57161;43.136;24.706;2022-09-23T12:41:32;99412.25;;;19.36;40.33
69879;BME280;57161;43.136;24.706;2022-09-23T12:46:37;99419.28;;;19.26;40.66
69879;BME280;57161;43.136;24.706;2022-09-23T12:49:04;99379.81;;;19.08;40.74
69879;BME280;57161;43.136;24.706;2022-09-23T12:51:34;99396.44;;;19.33;40.43
69879;BME280;57161;43.136;24.706;2022-09-23T13:01:24;99397.84;;;19.23;40.54
69879;BME280;57161;43.136;24.706;2022-09-23T13:03:56;99399.94;;;19.12;40.56
69879;BME280;57161;43.136;24.706;2022-09-23T13:09:28;99392.38;;;19.05;41.92
69879;BME280;57161;43.136;24.706;2022-09-23T13:12:00;99394.31;;;18.93;41.57
69879;BME280;57161;43.136;24.706;2022-09-23T13:14:27;99374.81;;;18.87;41.90
69879;BME280;57161;43.136;24.706;2022-09-23T13:16:55;99393.09;;;18.96;42.46
69879;BME280;57161;43.136;24.706;2022-09-23T13:26:54;99393.72;;;18.85;41.32
69879;BME280;57161;43.136;24.706;2022-09-23T13:29:26;99399.84;;;18.81;41.75
69879;BME280;57161;43.136;24.706;2022-09-23T13:31:56;99387.19;;;18.73;41.79
69879;BME280;57161;43.136;24.706;2022-09-23T13:34:25;99397.28;;;18.95;41.54
69879;BME280;57161;43.136;24.706;2022-09-23T13:36:53;99380.28;;;19.05;40.67
69879;BME280;57161;43.136;24.706;2022-09-23T13:39:23;99388.47;;;19.10;41.34
69879;BME280;57161;43.136;24.706;2022-09-23T13:41:51;99391.16;;;18.99;40.84
69879;BME280;57161;43.136;24.706;2022-09-23T13:44:18;99364.84;;;18.77;41.09
69879;BME280;57161;43.136;24.706;2022-09-23T13:46:48;99377.94;;;18.92;41.02
69879;BME280;57161;43.136;24.706;2022-09-23T13:49:34;99390.13;;;19.04;40.35
69879;BME280;57161;43.136;24.706;2022-09-23T13:52:01;99376.81;;;19.16;40.74
69879;BME280;57161;43.136;24.706;2022-09-23T13:56:53;99367.44;;;19.13;39.84
69879;BME280;57161;43.136;24.706;2022-09-23T14:02:14;99379.13;;;18.88;39.50
69879;BME280;57161;43.136;24.706;2022-09-23T14:04:41;99375.09;;;18.92;38.48
69879;BME280;57161;43.136;24.706;2022-09-23T14:07:09;99372.88;;;18.90;37.77
69879;BME280;57161;43.136;24.706;2022-09-23T14:09:36;99378.81;;;18.94;37.09
69879;BME280;57161;43.136;24.706;2022-09-23T14:12:05;99368.97;;;18.95;37.57
69879;BME280;57161;43.136;24.706;2022-09-23T14:14:36;99388.03;;;19.04;37.09
69879;BME280;57161;43.136;24.706;2022-09-23T14:17:03;99367.03;;;18.98;36.97
69879;BME280;57161;43.136;24.706;2022-09-23T14:19:30;99381.47;;;19.11;36.88
69879;BME280;57161;43.136;24.706;2022-09-23T14:21:56;99363.31;;;19.05;37.41
69879;BME280;57161;43.136;24.706;2022-09-23T14:29:33;99375.19;;;19.23;37.18
69879;BME280;57161;43.136;24.706;2022-09-23T14:32:02;99369.41;;;19.01;36.71
69879;BME280;57161;43.136;24.706;2022-09-23T14:40:48;99386.13;;;18.68;39.19
69879;BME280;57161;43.136;24.706;2022-09-23T14:43:18;99379.41;;;18.25;39.87
69879;BME280;57161;43.136;24.706;2022-09-23T14:45:51;99386.69;;;18.09;40.28
69879;BME280;57161;43.136;24.706;2022-09-23T14:48:22;99372.97;;;18.05;40.11
69879;BME280;57161;43.136;24.706;2022-09-23T14:50:55;99343.31;;;17.87;40.17
69879;BME280;57161;43.136;24.706;2022-09-23T14:55:51;99377.94;;;18.24;39.67
69879;BME280;57161;43.136;24.706;2022-09-23T14:58:20;99385.38;;;18.29;39.41
69879;BME280;57161;43.136;24.706;2022-09-23T15:00:52;99370.16;;;18.15;39.45
69879;BME280;57161;43.136;24.706;2022-09-23T15:03:18;99346.31;;;17.89;39.72
69879;BME280;57161;43.136;24.706;2022-09-23T15:05:46;99388.31;;;18.12;39.41
69879;BME280;57161;43.136;24.706;2022-09-23T15:08:18;99330.19;;;17.72;39.95
69879;BME280;57161;43.136;24.706;2022-09-23T15:10:46;99388.63;;;18.16;40.08
69879;BME280;57161;43.136;24.706;2022-09-23T15:13:30;99386.53;;;18.16;39.46
69879;BME280;57161;43.136;24.706;2022-09-23T15:15:58;99384.91;;;18.13;39.78
69879;BME280;57161;43.136;24.706;2022-09-23T15:18:33;99375.97;;;18.07;39.31
69879;BME280;57161;43.136;24.706;2022-09-23T15:21:02;99383.69;;;17.97;40.07
69879;BME280;57161;43.136;24.706;2022-09-23T15:26:08;99391.84;;;18.03;39.97
69879;BME280;57161;43.136;24.706;2022-09-23T15:28:34;99386.50;;;17.97;40.11
69879;BME280;57161;43.136;24.706;2022-09-23T15:30:59;99377.56;;;17.91;40.20
69879;BME280;57161;43.136;24.706;2022-09-23T15:33:25;99387.53;;;17.92;40.73
69879;BME280;57161;43.136;24.706;2022-09-23T15:35:55;99377.53;;;17.81;40.46
69879;BME280;57161;43.136;24.706;2022-09-23T15:38:20;99380.94;;;17.80;40.94
69879;BME280;57161;43.136;24.706;2022-09-23T15:40:46;99402.81;;;17.79;41.46
69879;BME280;57161;43.136;24.706;2022-09-23T15:43:21;99395.53;;;17.76;41.87
69879;BME280;57161;43.136;24.706;2022-09-23T15:45:50;99395.19;;;17.72;41.80
69879;BME280;57161;43.136;24.706;2022-09-23T15:48:41;99403.50;;;17.70;41.78
69879;BME280;57161;43.136;24.706;2022-09-23T15:51:08;99360.81;;;17.29;42.17
69879;BME280;57161;43.136;24.706;2022-09-23T15:53:37;99396.75;;;17.56;43.17
69879;BME280;57161;43.136;24.706;2022-09-23T15:56:03;99397.63;;;17.49;43.35
69879;BME280;57161;43.136;24.706;2022-09-23T15:58:29;99397.75;;;17.41;43.45